Time;durP1;ratioP1;P1;durP2;ratioP2;P2;SDS_P1;SDS_P2;PMS_P1;PMS_P2;Temp;Humidity;BMP_temperature;BMP_pressure;BME280_temperature;BME280_humidity;BME280_pressure;Samples;Min_cycle;Max_cycle;Signal;HPM_P1;HPM_P2
2023/07/13 00:01:49;;;;;;;6.63;1.80;;;15.80;99.90;;;;;;5048074;28;20488;-83
2023/07/13 00:04:18;;;;;;;4.90;2.17;;;15.80;99.90;;;;;;5047540;28;20212;-84
2023/07/13 00:06:45;;;;;;;8.27;2.33;;;15.80;99.90;;;;;;5047928;28;20494;-84
2023/07/13 00:09:13;;;;;;;8.65;2.22;;;15.70;99.90;;;;;;5031224;28;20124;-84
2023/07/13 00:11:41;;;;;;;11.18;2.03;;;15.70;99.90;;;;;;5064217;28;20051;-84
2023/07/13 00:14:09;;;;;;;5.38;2.15;;;15.70;99.90;;;;;;5047123;28;20065;-83
2023/07/13 00:16:37;;;;;;;7.35;2.10;;;15.70;99.90;;;;;;5064266;28;20128;-84
2023/07/13 00:19:06;;;;;;;4.72;2.38;;;15.60;99.90;;;;;;5047609;28;20312;-84
2023/07/13 00:21:32;;;;;;;7.80;2.55;;;15.60;99.90;;;;;;5051910;28;20033;-84
2023/07/13 00:24:01;;;;;;;7.25;2.30;;;15.60;99.90;;;;;;5083996;28;20044;-85
2023/07/13 00:26:27;;;;;;;5.07;2.25;;;15.60;99.90;;;;;;5067510;28;20485;-83
2023/07/13 00:28:54;;;;;;;5.53;2.20;;;15.60;99.90;;;;;;5050754;28;20052;-84
2023/07/13 00:31:21;;;;;;;5.60;2.00;;;15.50;99.90;;;;;;5050899;28;20465;-84
2023/07/13 00:33:47;;;;;;;8.30;2.40;;;15.50;99.90;;;;;;5067487;28;20052;-84
2023/07/13 00:36:14;;;;;;;10.95;2.33;;;15.50;99.90;;;;;;5066756;28;20052;-84
2023/07/13 00:38:41;;;;;;;8.60;2.35;;;15.50;99.90;;;;;;5089448;28;20059;-84
2023/07/13 00:41:07;;;;;;;6.47;2.40;;;15.40;99.90;;;;;;5103620;28;20411;-84
2023/07/13 00:43:35;;;;;;;7.47;2.35;;;15.40;99.90;;;;;;5070329;28;20591;-84
2023/07/13 00:46:01;;;;;;;8.45;2.22;;;15.40;99.90;;;;;;5104077;28;20051;-84
2023/07/13 00:48:32;;;;;;;9.40;2.38;;;15.40;99.90;;;;;;5103488;28;20048;-84
2023/07/13 00:51:00;;;;;;;7.75;2.22;;;15.50;99.90;;;;;;5070447;28;20047;-84
2023/07/13 00:53:29;;;;;;;6.97;2.50;;;15.50;99.90;;;;;;5086644;28;20051;-83
2023/07/13 00:55:57;;;;;;;8.25;2.10;;;15.50;99.90;;;;;;5103451;28;20056;-84
2023/07/13 00:58:26;;;;;;;11.48;2.55;;;15.50;99.90;;;;;;5069974;28;20480;-84
2023/07/13 01:00:53;;;;;;;8.68;2.08;;;15.50;99.90;;;;;;5086958;28;20070;-84
2023/07/13 01:03:20;;;;;;;7.30;2.05;;;15.50;99.90;;;;;;5119748;28;20044;-84
2023/07/13 01:05:49;;;;;;;7.38;2.15;;;15.50;99.90;;;;;;5086834;28;20041;-84
2023/07/13 01:08:16;;;;;;;7.55;2.30;;;15.60;99.90;;;;;;5086338;28;20075;-83
2023/07/13 01:10:54;;;;;;;6.68;2.25;;;15.60;99.90;;;;;;5070206;28;20078;-84
2023/07/13 01:13:21;;;;;;;7.65;1.80;;;15.60;99.90;;;;;;5086327;28;20091;-84
2023/07/13 01:15:51;;;;;;;8.52;2.70;;;15.60;99.90;;;;;;5086530;28;20044;-84
2023/07/13 01:18:26;;;;;;;14.13;2.30;;;15.70;99.90;;;;;;5103011;28;20044;-84
2023/07/13 01:21:04;;;;;;;10.40;2.22;;;15.70;99.90;;;;;;5103632;28;20094;-84
2023/07/13 01:23:32;;;;;;;9.07;2.40;;;15.70;99.90;;;;;;5049847;28;20051;-84
2023/07/13 01:25:59;;;;;;;9.93;2.33;;;15.70;99.90;;;;;;5049620;28;20049;-84
2023/07/13 01:28:27;;;;;;;8.05;2.10;;;15.70;99.90;;;;;;5033652;28;20047;-83
2023/07/13 01:30:57;;;;;;;9.02;2.38;;;15.70;99.90;;;;;;5033682;28;20049;-84
2023/07/13 01:33:25;;;;;;;12.27;2.20;;;15.70;99.90;;;;;;5065539;28;20120;-84
2023/07/13 01:35:57;;;;;;;9.77;2.10;;;15.80;99.90;;;;;;5050301;28;20511;-84
2023/07/13 01:38:24;;;;;;;6.88;2.33;;;15.70;99.90;;;;;;5033730;28;20045;-83
2023/07/13 01:40:52;;;;;;;11.32;2.58;;;15.80;99.90;;;;;;5033902;28;20041;-84
2023/07/13 01:43:19;;;;;;;10.55;2.58;;;15.80;99.90;;;;;;5082579;28;20512;-84
2023/07/13 01:45:46;;;;;;;8.50;2.40;;;15.80;99.90;;;;;;5066318;28;20048;-83
2023/07/13 01:48:13;;;;;;;11.90;2.20;;;15.80;99.90;;;;;;5033577;28;20083;-84
2023/07/13 01:50:40;;;;;;;9.15;2.70;;;15.80;99.90;;;;;;5033487;28;20052;-84
2023/07/13 01:53:07;;;;;;;7.15;2.03;;;15.80;99.90;;;;;;5066407;28;20408;-83
2023/07/13 01:55:34;;;;;;;8.18;2.05;;;15.80;99.90;;;;;;5033093;28;20041;-84
2023/07/13 01:58:01;;;;;;;9.85;2.28;;;15.80;99.90;;;;;;5033531;28;20123;-83
2023/07/13 02:00:28;;;;;;;10.23;2.20;;;15.80;99.90;;;;;;5017285;28;20128;-83
2023/07/13 02:02:55;;;;;;;10.38;2.25;;;15.80;99.90;;;;;;5033708;28;20128;-83
2023/07/13 02:05:22;;;;;;;9.77;1.90;;;15.90;99.90;;;;;;5049297;28;20091;-83
2023/07/13 02:07:49;;;;;;;11.27;2.85;;;15.90;99.90;;;;;;5066187;28;20041;-83
2023/07/13 02:10:15;;;;;;;13.45;2.33;;;15.90;99.90;;;;;;5065721;28;20455;-83
2023/07/13 02:12:42;;;;;;;10.63;2.22;;;15.90;99.90;;;;;;5033466;28;20045;-83
2023/07/13 02:15:10;;;;;;;9.65;2.20;;;15.90;99.90;;;;;;5049730;28;20056;-83
2023/07/13 02:17:37;;;;;;;10.95;2.33;;;15.90;99.90;;;;;;5065733;28;20495;-84
2023/07/13 02:20:04;;;;;;;12.70;2.45;;;15.90;99.90;;;;;;5049969;28;20080;-84
2023/07/13 02:22:32;;;;;;;9.15;2.30;;;15.80;99.90;;;;;;5061244;28;20588;-84
2023/07/13 02:24:59;;;;;;;6.30;1.77;;;15.90;99.90;;;;;;5069308;28;20137;-83
2023/07/13 02:27:25;;;;;;;7.57;2.17;;;15.80;99.90;;;;;;5068951;28;20132;-83
2023/07/13 02:29:53;;;;;;;8.68;2.35;;;15.80;99.90;;;;;;5036878;28;20477;-83
2023/07/13 02:32:19;;;;;;;7.13;2.05;;;15.90;99.90;;;;;;5069493;28;20160;-83
2023/07/13 02:34:46;;;;;;;8.07;2.22;;;15.90;99.90;;;;;;5036637;28;20127;-83
2023/07/13 02:37:13;;;;;;;10.52;2.20;;;15.80;99.90;;;;;;5071406;28;20044;-84
2023/07/13 02:39:39;;;;;;;11.40;1.75;;;15.80;99.90;;;;;;5039563;28;20052;-84
2023/07/13 02:42:06;;;;;;;10.20;2.00;;;15.80;99.90;;;;;;5056723;28;20037;-84
2023/07/13 02:44:33;;;;;;;11.00;2.45;;;15.80;99.90;;;;;;5043500;28;20059;-83
2023/07/13 02:47:00;;;;;;;10.27;2.25;;;15.80;99.90;;;;;;5082658;28;20063;-84
2023/07/13 02:49:26;;;;;;;9.48;2.30;;;15.80;99.90;;;;;;5074516;28;20089;-84
2023/07/13 02:51:53;;;;;;;10.60;2.30;;;15.80;99.90;;;;;;5059837;28;20046;-84
2023/07/13 02:54:20;;;;;;;10.35;2.25;;;15.80;99.90;;;;;;5092725;28;20059;-84
2023/07/13 02:56:46;;;;;;;7.65;2.60;;;15.80;99.90;;;;;;5075868;28;20044;-84
2023/07/13 02:59:13;;;;;;;10.02;2.00;;;15.80;99.90;;;;;;5109351;28;20079;-83
2023/07/13 03:01:40;;;;;;;8.82;2.38;;;15.80;99.90;;;;;;5075595;28;20562;-83
2023/07/13 03:04:07;;;;;;;9.80;2.30;;;15.80;99.90;;;;;;5092787;28;20479;-83
2023/07/13 03:06:34;;;;;;;10.63;2.47;;;15.80;99.90;;;;;;5074994;28;20138;-84
2023/07/13 03:09:00;;;;;;;10.30;2.03;;;15.80;99.90;;;;;;5075650;28;20503;-84
2023/07/13 03:11:27;;;;;;;7.25;2.08;;;15.80;99.90;;;;;;5060427;28;20043;-80
2023/07/13 03:13:55;;;;;;;6.97;2.10;;;15.80;99.90;;;;;;5054512;28;20423;-83
2023/07/13 03:16:22;;;;;;;7.57;1.92;;;15.70;99.90;;;;;;5068098;28;20099;-83
2023/07/13 03:18:48;;;;;;;7.65;2.45;;;15.70;99.90;;;;;;5069231;28;20071;-82
2023/07/13 03:21:16;;;;;;;10.43;2.45;;;15.70;99.90;;;;;;5070395;28;20496;-83
2023/07/13 03:23:43;;;;;;;8.30;2.30;;;15.70;99.90;;;;;;5053263;28;20040;-82
2023/07/13 03:26:17;;;;;;;7.18;2.00;;;15.70;99.90;;;;;;5036720;28;20051;-82
2023/07/13 03:28:44;;;;;;;9.35;2.30;;;15.80;99.90;;;;;;5069367;28;20340;-82
2023/07/13 03:31:17;;;;;;;12.95;2.65;;;15.70;99.90;;;;;;5054887;28;20043;-82
2023/07/13 03:33:45;;;;;;;9.63;2.20;;;15.70;99.90;;;;;;5070616;28;20055;-82
2023/07/13 03:36:21;;;;;;;9.70;2.10;;;15.70;99.90;;;;;;5070783;28;20044;-82
2023/07/13 03:38:59;;;;;;;11.65;2.35;;;15.60;99.90;;;;;;5070688;28;20114;-82
2023/07/13 03:41:26;;;;;;;12.50;2.53;;;15.60;99.90;;;;;;5069741;28;20098;-82
2023/07/13 03:43:53;;;;;;;9.82;2.33;;;15.60;99.90;;;;;;5037963;28;20568;-83
2023/07/13 03:46:20;;;;;;;10.07;2.90;;;15.60;99.90;;;;;;5070800;28;20052;-81
2023/07/13 03:48:47;;;;;;;12.57;2.60;;;15.60;99.90;;;;;;5085661;28;20404;-83
2023/07/13 03:51:15;;;;;;;11.45;2.55;;;15.60;99.90;;;;;;5054557;28;20044;-82
2023/07/13 03:53:44;;;;;;;8.82;2.60;;;15.50;99.90;;;;;;5070072;28;20052;-83
2023/07/13 03:56:13;;;;;;;11.70;2.30;;;15.60;99.90;;;;;;5086562;28;20657;-83
2023/07/13 03:58:41;;;;;;;8.02;2.65;;;15.50;99.90;;;;;;5070018;28;20079;-82
2023/07/13 04:01:10;;;;;;;7.82;2.33;;;15.60;99.90;;;;;;5070382;28;20051;-82
2023/07/13 04:03:37;;;;;;;10.88;3.10;;;15.60;99.90;;;;;;5069464;28;20036;-82
2023/07/13 04:06:20;;;;;;;13.55;2.67;;;15.60;99.90;;;;;;5070041;28;20446;-83
2023/07/13 04:08:53;;;;;;;10.18;2.45;;;15.60;99.90;;;;;;5070607;28;20827;-83
2023/07/13 04:11:23;;;;;;;13.45;3.28;;;15.60;99.90;;;;;;5087277;28;20040;-83
2023/07/13 04:13:51;;;;;;;9.25;2.72;;;15.60;99.90;;;;;;5070405;28;20535;-84
2023/07/13 04:16:18;;;;;;;8.93;2.20;;;15.60;99.90;;;;;;5070661;28;20062;-83
2023/07/13 04:18:47;;;;;;;10.07;2.40;;;15.60;99.90;;;;;;5054224;28;20037;-83
2023/07/13 04:21:15;;;;;;;10.15;2.25;;;15.60;99.90;;;;;;5087517;28;20043;-83
2023/07/13 04:23:42;;;;;;;16.15;3.10;;;15.60;99.90;;;;;;5070456;28;20079;-83
2023/07/13 04:26:09;;;;;;;10.32;2.80;;;15.60;99.90;;;;;;5037893;28;20041;-83
2023/07/13 04:28:35;;;;;;;13.50;3.05;;;15.50;99.90;;;;;;5070466;28;20051;-83
2023/07/13 04:31:03;;;;;;;14.60;2.50;;;15.60;99.90;;;;;;5071038;28;20135;-83
2023/07/13 04:33:30;;;;;;;7.75;2.70;;;15.60;99.90;;;;;;5086734;28;20047;-83
2023/07/13 04:35:57;;;;;;;10.70;2.70;;;15.60;99.90;;;;;;5070315;28;20484;-84
2023/07/13 04:38:27;;;;;;;11.85;3.05;;;15.60;99.90;;;;;;5070490;28;20079;-83
2023/07/13 04:40:59;;;;;;;13.25;2.70;;;15.70;99.90;;;;;;5103163;28;20041;-83
2023/07/13 04:43:26;;;;;;;11.57;2.40;;;15.70;99.90;;;;;;5087282;28;20087;-83
2023/07/13 04:45:54;;;;;;;10.63;2.10;;;15.70;99.90;;;;;;5086723;28;20075;-83
2023/07/13 04:48:21;;;;;;;9.50;2.75;;;15.70;99.90;;;;;;5103236;28;20076;-83
2023/07/13 04:50:57;;;;;;;11.63;2.30;;;15.70;99.90;;;;;;5086439;28;20044;-83
2023/07/13 04:53:24;;;;;;;9.40;2.75;;;15.80;99.90;;;;;;5070477;28;20488;-83
2023/07/13 04:55:51;;;;;;;11.13;2.63;;;15.80;99.90;;;;;;5086239;28;20041;-83
2023/07/13 04:58:18;;;;;;;10.25;2.78;;;15.80;99.90;;;;;;5070294;28;20032;-83
2023/07/13 05:00:45;;;;;;;17.27;2.88;;;15.70;99.90;;;;;;5085903;28;20048;-82
2023/07/13 05:03:11;;;;;;;10.23;2.50;;;15.70;99.90;;;;;;5070119;28;20040;-83
2023/07/13 05:05:38;;;;;;;11.07;2.90;;;15.80;99.90;;;;;;5089418;28;20036;-83
2023/07/13 05:08:05;;;;;;;10.70;2.60;;;15.80;99.90;;;;;;5076147;28;20771;-83
2023/07/13 05:10:32;;;;;;;12.82;2.50;;;15.80;99.90;;;;;;5086830;28;20046;-83
2023/07/13 05:12:58;;;;;;;14.35;2.50;;;15.80;99.90;;;;;;5069647;28;20138;-83
2023/07/13 05:15:26;;;;;;;10.43;3.00;;;15.80;99.90;;;;;;5069971;28;20044;-83
2023/07/13 05:17:53;;;;;;;10.32;3.05;;;15.70;99.90;;;;;;5086076;28;20072;-83
2023/07/13 05:20:19;;;;;;;8.82;2.58;;;15.90;99.90;;;;;;5102768;28;20083;-84
2023/07/13 05:22:46;;;;;;;10.18;2.78;;;15.90;99.90;;;;;;5069684;28;20044;-83
2023/07/13 05:25:14;;;;;;;10.50;2.63;;;15.90;99.90;;;;;;5086561;28;20041;-83
2023/07/13 05:27:40;;;;;;;10.90;2.70;;;16.00;99.90;;;;;;5069742;28;20044;-83
2023/07/13 05:30:10;;;;;;;10.95;2.60;;;16.00;99.90;;;;;;5070216;28;20041;-83
2023/07/13 05:32:38;;;;;;;9.40;2.90;;;16.00;99.90;;;;;;5106136;28;20121;-83
2023/07/13 05:35:05;;;;;;;9.98;3.25;;;16.10;99.90;;;;;;5069792;28;20210;-83
2023/07/13 05:37:32;;;;;;;12.55;3.08;;;16.10;99.90;;;;;;5103041;28;20120;-83
2023/07/13 05:39:59;;;;;;;11.85;3.08;;;16.20;99.90;;;;;;5069042;28;20127;-83
2023/07/13 05:42:25;;;;;;;10.75;2.78;;;16.30;99.90;;;;;;5103048;28;20048;-83
2023/07/13 05:44:52;;;;;;;9.52;2.58;;;16.50;99.90;;;;;;5085494;28;20037;-83
2023/07/13 05:47:19;;;;;;;13.13;2.97;;;16.50;99.90;;;;;;5102816;28;20051;-83
2023/07/13 05:49:46;;;;;;;12.70;3.10;;;16.60;99.90;;;;;;5068742;28;20045;-83
2023/07/13 05:52:13;;;;;;;13.75;2.95;;;16.60;99.90;;;;;;5086202;28;20040;-83
2023/07/13 05:54:39;;;;;;;14.85;2.95;;;16.60;99.90;;;;;;5069527;28;20074;-83
2023/07/13 05:57:06;;;;;;;12.93;2.80;;;16.60;99.90;;;;;;5069054;28;20041;-83
2023/07/13 05:59:33;;;;;;;9.52;2.72;;;16.70;99.90;;;;;;5069506;28;20048;-84
2023/07/13 06:01:59;;;;;;;12.18;2.75;;;16.70;99.90;;;;;;5069013;28;20033;-83
2023/07/13 06:04:26;;;;;;;10.43;3.28;;;16.70;99.90;;;;;;5086158;28;20048;-83
2023/07/13 06:06:53;;;;;;;10.00;2.70;;;16.80;99.90;;;;;;5085996;28;20040;-83
2023/07/13 06:09:19;;;;;;;20.70;2.72;;;16.80;99.90;;;;;;5069588;28;20040;-84
2023/07/13 06:11:46;;;;;;;12.20;2.70;;;16.90;99.90;;;;;;5070765;28;20109;-83
2023/07/13 06:14:13;;;;;;;9.93;3.58;;;16.90;99.90;;;;;;5090008;28;20051;-83
2023/07/13 06:16:40;;;;;;;9.35;3.10;;;17.00;99.90;;;;;;5073056;28;20046;-83
2023/07/13 06:19:06;;;;;;;12.60;2.70;;;17.00;99.90;;;;;;5089544;28;20309;-84
2023/07/13 06:21:33;;;;;;;12.05;2.80;;;17.10;99.90;;;;;;5089533;28;20404;-84
2023/07/13 06:24:00;;;;;;;15.30;3.38;;;17.20;99.90;;;;;;5072406;28;20041;-84
2023/07/13 06:26:27;;;;;;;9.00;2.40;;;17.20;99.90;;;;;;5090019;28;20106;-84
2023/07/13 06:28:54;;;;;;;13.85;2.60;;;17.30;99.90;;;;;;5105903;28;20051;-84
2023/07/13 06:31:21;;;;;;;8.18;2.08;;;17.40;99.90;;;;;;5080934;28;20048;-84
2023/07/13 06:33:48;;;;;;;9.68;2.53;;;17.40;99.90;;;;;;5050520;28;20119;-84
2023/07/13 06:36:14;;;;;;;12.13;2.92;;;17.50;99.90;;;;;;5061333;28;20052;-84
2023/07/13 06:38:41;;;;;;;12.73;2.38;;;17.50;99.90;;;;;;5065365;28;20052;-83
2023/07/13 06:41:08;;;;;;;17.55;2.97;;;17.70;99.90;;;;;;5065239;28;20162;-84
2023/07/13 06:43:35;;;;;;;10.73;2.30;;;17.80;99.90;;;;;;5064493;28;20041;-84
2023/07/13 06:46:02;;;;;;;7.28;2.53;;;17.80;99.90;;;;;;5067567;28;20567;-85
2023/07/13 06:48:29;;;;;;;7.57;2.15;;;17.90;99.90;;;;;;5073817;28;20090;-84
2023/07/13 06:50:55;;;;;;;9.07;2.42;;;18.00;99.90;;;;;;5055695;28;20508;-84
2023/07/13 06:53:23;;;;;;;11.75;2.70;;;18.10;99.90;;;;;;5055870;28;20583;-84
2023/07/13 06:55:50;;;;;;;10.35;2.22;;;18.10;99.90;;;;;;5122709;28;20400;-84
2023/07/13 06:58:18;;;;;;;9.88;2.17;;;18.10;99.90;;;;;;5105392;28;20045;-84
2023/07/13 07:00:45;;;;;;;8.80;2.45;;;18.10;99.90;;;;;;5110145;28;20047;-84
2023/07/13 07:03:12;;;;;;;9.82;2.20;;;18.20;99.90;;;;;;5098982;28;20434;-83
2023/07/13 07:05:39;;;;;;;7.78;2.20;;;18.30;99.90;;;;;;5072389;28;20047;-84
2023/07/13 07:08:06;;;;;;;13.63;2.45;;;18.40;99.90;;;;;;5055744;28;20044;-84
2023/07/13 07:10:34;;;;;;;5.70;1.80;;;18.50;99.90;;;;;;5055751;28;20412;-84
2023/07/13 07:13:01;;;;;;;10.73;2.47;;;18.60;99.90;;;;;;5071420;28;20476;-84
2023/07/13 07:15:28;;;;;;;7.00;2.42;;;18.70;99.90;;;;;;5088642;28;20051;-84
2023/07/13 07:17:55;;;;;;;8.18;2.40;;;18.80;99.90;;;;;;5088960;28;20041;-81
2023/07/13 07:20:22;;;;;;;9.18;2.20;;;18.80;99.90;;;;;;5072398;28;20032;-82
2023/07/13 07:22:48;;;;;;;8.60;3.20;;;19.00;99.90;;;;;;5088337;28;20036;-84
2023/07/13 07:25:15;;;;;;;8.77;2.42;;;19.10;99.90;;;;;;5053952;28;20606;-83
2023/07/13 07:27:42;;;;;;;8.13;1.98;;;19.20;99.90;;;;;;5055972;28;20044;-83
2023/07/13 07:30:09;;;;;;;9.75;2.40;;;19.30;99.90;;;;;;5038938;28;20044;-84
2023/07/13 07:32:36;;;;;;;12.55;2.30;;;19.40;99.90;;;;;;5038850;28;20396;-82
2023/07/13 07:35:03;;;;;;;8.15;2.20;;;19.40;99.90;;;;;;5071775;28;20048;-83
2023/07/13 07:37:30;;;;;;;10.18;2.10;;;19.40;99.90;;;;;;5088189;28;20048;-84
2023/07/13 07:39:57;;;;;;;7.72;1.98;;;19.30;99.90;;;;;;5071610;28;20117;-84
2023/07/13 07:42:24;;;;;;;9.35;2.22;;;19.10;99.90;;;;;;5088541;28;20123;-84
2023/07/13 07:44:50;;;;;;;8.23;2.13;;;19.10;99.90;;;;;;5088238;28;20078;-84
2023/07/13 07:47:17;;;;;;;6.40;2.00;;;19.20;99.90;;;;;;5064760;28;20092;-84
2023/07/13 07:49:44;;;;;;;6.93;1.88;;;19.30;99.90;;;;;;5065060;28;20109;-84
2023/07/13 07:52:11;;;;;;;3.97;1.70;;;19.30;99.90;;;;;;5076541;28;20071;-84
2023/07/13 07:54:37;;;;;;;9.85;1.80;;;19.30;99.90;;;;;;5060045;28;20049;-85
2023/07/13 07:57:04;;;;;;;8.23;2.00;;;19.40;99.90;;;;;;5064483;28;20036;-84
2023/07/13 07:59:31;;;;;;;8.88;1.85;;;19.30;99.90;;;;;;5074960;28;20051;-83
2023/07/13 08:01:58;;;;;;;7.18;2.40;;;19.20;99.90;;;;;;5061930;28;20036;-83
2023/07/13 08:04:24;;;;;;;4.85;1.65;;;19.20;99.90;;;;;;5063221;28;20032;-83
2023/07/13 08:06:51;;;;;;;6.65;1.88;;;19.20;99.90;;;;;;5065473;28;20135;-83
2023/07/13 08:09:18;;;;;;;5.90;1.90;;;19.10;99.90;;;;;;5088508;28;20052;-83
2023/07/13 08:11:45;;;;;;;5.88;2.08;;;19.20;99.90;;;;;;5064453;28;20044;-83
2023/07/13 08:14:11;;;;;;;5.95;1.80;;;19.10;99.90;;;;;;5047992;28;20039;-84
2023/07/13 08:16:39;;;;;;;10.88;2.17;;;19.20;99.90;;;;;;5055471;28;20040;-85
2023/07/13 08:19:06;;;;;;;6.38;1.70;;;19.40;99.90;;;;;;5089402;28;20378;-83
2023/07/13 08:21:32;;;;;;;6.30;2.13;;;19.50;99.90;;;;;;5033859;28;20048;-84
2023/07/13 08:23:59;;;;;;;5.90;1.85;;;19.70;99.90;;;;;;5033516;28;20052;-84
2023/07/13 08:26:26;;;;;;;6.65;1.58;;;19.80;99.90;;;;;;5060908;28;20511;-83
2023/07/13 08:28:52;;;;;;;9.32;1.83;;;19.90;99.90;;;;;;5086536;28;20106;-83
2023/07/13 08:31:19;;;;;;;5.03;1.33;;;20.00;99.90;;;;;;5073421;28;20041;-83
2023/07/13 08:33:46;;;;;;;7.97;1.75;;;20.00;99.90;;;;;;5085961;28;20518;-84
2023/07/13 08:36:13;;;;;;;6.80;1.73;;;19.80;99.90;;;;;;5082565;28;20048;-83
2023/07/13 08:38:40;;;;;;;8.18;2.03;;;19.70;99.90;;;;;;5069089;28;20048;-84
2023/07/13 08:41:18;;;;;;;6.22;1.58;;;19.50;99.90;;;;;;5053306;28;20507;-85
2023/07/13 08:43:58;;;;;;;4.43;1.38;;;18.40;99.90;;;;;;5070377;28;20105;-86
2023/07/13 08:46:40;;;;;;;4.32;1.50;;;17.60;99.90;;;;;;5068970;28;20052;-85
2023/07/13 08:49:15;;;;;;;6.47;1.40;;;17.20;99.90;;;;;;5096951;28;20536;-87
2023/07/13 08:51:56;;;;;;;3.20;1.17;;;16.90;99.90;;;;;;5077001;28;20038;-87
2023/07/13 08:54:39;;;;;;;2.70;1.35;;;16.80;99.90;;;;;;5088109;28;20508;-87
2023/07/13 08:57:17;;;;;;;5.22;1.60;;;16.60;99.90;;;;;;5070764;28;20048;-86
2023/07/13 08:59:44;;;;;;;4.55;1.60;;;16.60;99.90;;;;;;5070613;28;20480;-87
2023/07/13 09:02:32;;;;;;;5.05;1.70;;;16.70;99.90;;;;;;5078400;28;20066;-86
2023/07/13 09:05:00;;;;;;;6.18;2.05;;;16.80;99.90;;;;;;5078277;28;20528;-86
2023/07/13 09:07:52;;;;;;;4.78;1.85;;;16.80;99.90;;;;;;5084025;28;20045;-87
2023/07/13 09:10:33;;;;;;;7.30;2.80;;;16.90;99.90;;;;;;5070394;28;20484;-86
2023/07/13 09:13:22;;;;;;;7.80;2.70;;;17.00;99.90;;;;;;5070208;28;20050;-86
2023/07/13 09:15:49;;;;;;;8.05;2.38;;;16.90;99.90;;;;;;5069447;28;20044;-86
2023/07/13 09:18:27;;;;;;;7.90;2.60;;;16.90;99.90;;;;;;5069870;28;20048;-87
2023/07/13 09:21:05;;;;;;;9.68;2.95;;;16.90;99.90;;;;;;5070624;28;20045;-87
2023/07/13 09:23:32;;;;;;;15.50;4.45;;;16.90;99.90;;;;;;5103533;28;20719;-88
2023/07/13 09:26:10;;;;;;;6.35;2.65;;;16.80;99.90;;;;;;5097160;28;20036;-87
2023/07/13 09:28:46;;;;;;;5.60;2.08;;;16.70;99.90;;;;;;5097362;28;20079;-88
2023/07/13 09:31:26;;;;;;;7.85;2.17;;;16.50;99.90;;;;;;5074871;28;20583;-87
2023/07/13 09:33:52;;;;;;;5.68;1.85;;;16.40;99.90;;;;;;5076149;28;20070;-87
2023/07/13 09:36:27;;;;;;;5.68;1.90;;;16.30;99.90;;;;;;5063638;28;20036;-87
2023/07/13 09:39:25;;;;;;;4.97;2.05;;;16.30;99.90;;;;;;5065573;28;20059;-86
2023/07/13 09:42:00;;;;;;;4.85;1.83;;;16.40;99.90;;;;;;5101740;28;20161;-85
2023/07/13 09:44:59;;;;;;;5.72;2.22;;;16.60;99.90;;;;;;5069688;28;20118;-87
2023/07/13 09:47:30;;;;;;;4.57;2.17;;;17.00;99.90;;;;;;5072978;28;20504;-86
2023/07/13 09:50:00;;;;;;;4.25;1.95;;;17.40;99.90;;;;;;5074031;28;20508;-86
2023/07/13 09:52:38;;;;;;;4.53;1.70;;;17.40;99.90;;;;;;5072412;28;20055;-86
2023/07/13 09:55:29;;;;;;;5.63;1.90;;;17.50;99.90;;;;;;5062811;28;20056;-87
2023/07/13 09:57:56;;;;;;;7.35;1.90;;;17.50;99.90;;;;;;5057111;28;20049;-87
2023/07/13 10:00:28;;;;;;;3.72;1.83;;;17.40;99.90;;;;;;5087734;28;20097;-89
2023/07/13 10:03:13;;;;;;;3.63;1.70;;;17.30;99.90;;;;;;5096303;28;20043;-88
2023/07/13 10:05:42;;;;;;;5.82;2.10;;;17.30;99.90;;;;;;5096490;28;20034;-88
2023/07/13 10:08:19;;;;;;;5.03;2.22;;;17.50;99.90;;;;;;5095797;28;20036;-89
2023/07/13 10:10:51;;;;;;;5.72;2.50;;;17.90;99.90;;;;;;5096658;28;20047;-89
2023/07/13 10:13:26;;;;;;;6.05;2.60;;;18.10;99.90;;;;;;5069391;28;20442;-89
2023/07/13 10:15:53;;;;;;;7.25;2.65;;;18.50;99.90;;;;;;5076084;28;20048;-88
2023/07/13 10:18:22;;;;;;;4.57;2.13;;;18.70;99.90;;;;;;5106103;28;20072;-89
2023/07/13 10:20:51;;;;;;;7.18;2.80;;;18.90;99.90;;;;;;5079291;28;20085;-89
2023/07/13 10:23:23;;;;;;;6.05;2.40;;;19.00;99.90;;;;;;5104828;28;20117;-89
2023/07/13 10:25:50;;;;;;;10.65;3.00;;;19.20;99.90;;;;;;5075586;28;20044;-89
2023/07/13 10:28:37;;;;;;;9.63;3.75;;;19.30;99.90;;;;;;5042662;28;20052;-89
2023/07/13 10:31:11;;;;;;;6.78;2.83;;;19.50;99.90;;;;;;5075867;28;20044;-86
2023/07/13 10:33:38;;;;;;;7.80;3.10;;;19.50;99.90;;;;;;5108160;28;20059;-88
2023/07/13 10:36:17;;;;;;;7.35;2.70;;;19.50;99.90;;;;;;5072800;28;20126;-85
2023/07/13 10:38:46;;;;;;;4.57;2.38;;;19.20;99.90;;;;;;5122037;28;20037;-83
2023/07/13 10:41:20;;;;;;;7.05;2.47;;;19.10;99.90;;;;;;5105691;28;20048;-82
2023/07/13 10:43:53;;;;;;;5.70;2.10;;;18.90;99.90;;;;;;5071184;28;20423;-82
2023/07/13 10:46:23;;;;;;;4.63;2.20;;;18.60;99.90;;;;;;5071716;28;20131;-83
2023/07/13 10:48:56;;;;;;;6.57;2.30;;;18.60;99.90;;;;;;5072003;28;20044;-83
2023/07/13 10:51:23;;;;;;;5.47;2.30;;;18.50;99.90;;;;;;5067791;28;20044;-83
2023/07/13 10:54:23;;;;;;;3.65;2.30;;;18.70;99.90;;;;;;5071452;28;20075;-83
2023/07/13 10:57:06;;;;;;;5.00;2.70;;;18.90;99.90;;;;;;5063532;28;20045;-82
2023/07/13 10:59:33;;;;;;;4.97;2.30;;;19.00;99.90;;;;;;5070473;28;20041;-82
2023/07/13 11:02:04;;;;;;;5.28;2.78;;;19.00;99.90;;;;;;5073227;28;20101;-82
2023/07/13 11:04:45;;;;;;;7.22;2.70;;;18.90;99.90;;;;;;5078798;28;20467;-83
2023/07/13 11:07:21;;;;;;;4.35;2.53;;;19.20;99.90;;;;;;5070455;28;20083;-82
2023/07/13 11:09:57;;;;;;;5.45;2.20;;;19.40;99.90;;;;;;5073983;28;20040;-87
2023/07/13 11:12:25;;;;;;;6.63;2.10;;;19.50;99.90;;;;;;5070841;28;20039;-83
2023/07/13 11:14:54;;;;;;;5.30;2.10;;;19.70;99.90;;;;;;5070446;28;20047;-82
2023/07/13 11:17:33;;;;;;;4.18;1.80;;;19.70;99.90;;;;;;5071099;28;20079;-83
2023/07/13 11:20:12;;;;;;;5.03;2.00;;;19.70;99.90;;;;;;5088175;28;20525;-83
2023/07/13 11:23:13;;;;;;;6.78;2.33;;;19.20;99.90;;;;;;5070824;28;20525;-83
2023/07/13 11:25:40;;;;;;;4.35;2.10;;;19.60;99.90;;;;;;5070424;28;20044;-83
2023/07/13 11:28:10;;;;;;;4.03;2.00;;;19.90;99.90;;;;;;5121170;28;20488;-83
2023/07/13 11:30:48;;;;;;;5.57;1.85;;;20.00;99.90;;;;;;5070698;28;20147;-83
2023/07/13 11:33:40;;;;;;;4.82;1.85;;;20.30;99.90;;;;;;5071124;28;20038;-83
2023/07/13 11:36:14;;;;;;;8.45;2.30;;;20.50;99.90;;;;;;5070783;28;20159;-83
2023/07/13 11:38:43;;;;;;;6.85;1.65;;;20.70;99.90;;;;;;5070341;28;20063;-83
2023/07/13 11:41:27;;;;;;;6.22;1.80;;;20.60;99.90;;;;;;5104150;28;20135;-83
2023/07/13 11:44:02;;;;;;;6.65;1.80;;;20.60;99.90;;;;;;5070701;28;20487;-83
2023/07/13 11:46:29;;;;;;;;;;;20.80;99.90;;;;;;5071001;28;20047;-83
2023/07/13 11:48:56;;;;;;;4.85;1.70;;;20.90;99.90;;;;;;5071033;28;19924;-83
2023/07/13 11:51:31;;;;;;;3.10;1.52;;;21.10;99.90;;;;;;5086800;28;20040;-83
2023/07/13 11:54:02;;;;;;;5.53;1.90;;;21.00;99.90;;;;;;5070927;28;20135;-83
2023/07/13 11:56:29;;;;;;;4.63;1.95;;;21.00;99.90;;;;;;5069915;28;20051;-83
2023/07/13 11:58:57;;;;;;;4.25;1.70;;;21.20;99.90;;;;;;5070167;28;20113;-83
2023/07/13 12:01:32;;;;;;;3.45;1.60;;;21.20;99.90;;;;;;5070515;28;20491;-83
2023/07/13 12:04:04;;;;;;;5.28;1.63;;;21.30;99.90;;;;;;5070848;28;20044;-83
2023/07/13 12:06:40;;;;;;;4.13;1.60;;;21.60;99.90;;;;;;5053304;28;20830;-83
2023/07/13 12:09:18;;;;;;;5.18;1.20;;;21.70;99.90;;;;;;5071207;28;20060;-84
2023/07/13 12:11:44;;;;;;;5.28;1.40;;;21.80;99.90;;;;;;5054276;28;20045;-83
2023/07/13 12:14:19;;;;;;;4.47;1.50;;;21.60;99.90;;;;;;5037510;28;20071;-83
2023/07/13 12:16:46;;;;;;;4.70;1.40;;;21.30;99.90;;;;;;5053074;28;20044;-83
2023/07/13 12:19:26;;;;;;;3.78;1.30;;;21.10;99.90;;;;;;5054551;28;20032;-83
2023/07/13 12:21:58;;;;;;;3.15;1.67;;;21.10;99.90;;;;;;5070743;28;20067;-82
2023/07/13 12:24:25;;;;;;;3.40;1.13;;;21.10;99.90;;;;;;5070916;28;20036;-83
2023/07/13 12:27:03;;;;;;;4.70;1.45;;;21.20;99.90;;;;;;5070420;28;20190;-83
2023/07/13 12:29:32;;;;;;;3.90;1.15;;;21.20;99.90;;;;;;5070590;28;20119;-83
2023/07/13 12:31:59;;;;;;;3.97;1.35;;;21.20;99.90;;;;;;5087548;28;20054;-83
2023/07/13 12:34:26;;;;;;;5.43;1.35;;;21.20;99.90;;;;;;5054346;28;20048;-83
2023/07/13 12:36:56;;;;;;;3.63;1.13;;;21.20;99.90;;;;;;5070375;28;20428;-83
2023/07/13 12:39:38;;;;;;;3.40;1.10;;;21.10;99.90;;;;;;5070542;28;20049;-83
2023/07/13 12:42:27;;;;;;;3.40;1.20;;;21.00;99.90;;;;;;5070571;28;20734;-83
2023/07/13 12:45:02;;;;;;;3.97;1.17;;;20.90;99.90;;;;;;5070460;28;20097;-83
2023/07/13 12:47:29;;;;;;;3.88;1.10;;;20.80;99.90;;;;;;5087139;28;20040;-83
2023/07/13 12:49:59;;;;;;;5.63;1.40;;;21.00;99.90;;;;;;5070052;28;20044;-83
2023/07/13 12:52:32;;;;;;;4.65;1.50;;;21.30;99.90;;;;;;5070621;28;20048;-84
2023/07/13 12:55:14;;;;;;;3.53;1.10;;;21.50;99.90;;;;;;5086821;28;20051;-84
2023/07/13 12:57:56;;;;;;;3.08;1.30;;;21.50;99.90;;;;;;5069914;28;20044;-83